sensor_id;sensor_type;location;lat;lon;timestamp;P1;durP1;ratioP1;P2;durP2;ratioP2
30617;SDS011;17384;51.214;9.202;2023-10-19T00:00:47;17.35;;;9.98;;
30617;SDS011;17384;51.214;9.202;2023-10-19T00:03:16;19.00;;;11.05;;
30617;SDS011;17384;51.214;9.202;2023-10-19T00:05:42;19.77;;;10.10;;
30617;SDS011;17384;51.214;9.202;2023-10-19T00:08:10;19.25;;;11.52;;
30617;SDS011;17384;51.214;9.202;2023-10-19T00:10:36;26.27;;;11.20;;
30617;SDS011;17384;51.214;9.202;2023-10-19T00:13:01;17.48;;;11.90;;
30617;SDS011;17384;51.214;9.202;2023-10-19T00:15:32;23.48;;;12.30;;
30617;SDS011;17384;51.214;9.202;2023-10-19T00:18:00;17.05;;;10.05;;
30617;SDS011;17384;51.214;9.202;2023-10-19T00:20:45;20.05;;;10.80;;
30617;SDS011;17384;51.214;9.202;2023-10-19T00:23:20;18.13;;;10.98;;
30617;SDS011;17384;51.214;9.202;2023-10-19T00:26:07;23.50;;;11.38;;
30617;SDS011;17384;51.214;9.202;2023-10-19T00:28:40;22.45;;;11.77;;
30617;SDS011;17384;51.214;9.202;2023-10-19T00:31:06;20.42;;;12.00;;
30617;SDS011;17384;51.214;9.202;2023-10-19T00:33:36;21.73;;;12.48;;
30617;SDS011;17384;51.214;9.202;2023-10-19T00:36:05;18.80;;;11.25;;
30617;SDS011;17384;51.214;9.202;2023-10-19T00:38:33;16.40;;;11.13;;
30617;SDS011;17384;51.214;9.202;2023-10-19T00:41:02;20.45;;;9.75;;
30617;SDS011;17384;51.214;9.202;2023-10-19T00:43:38;20.40;;;11.50;;
30617;SDS011;17384;51.214;9.202;2023-10-19T00:46:12;19.90;;;11.20;;
30617;SDS011;17384;51.214;9.202;2023-10-19T00:48:47;25.58;;;11.60;;
30617;SDS011;17384;51.214;9.202;2023-10-19T00:51:14;21.83;;;12.07;;
30617;SDS011;17384;51.214;9.202;2023-10-19T00:56:26;18.38;;;11.20;;
30617;SDS011;17384;51.214;9.202;2023-10-19T00:58:56;22.02;;;12.38;;
30617;SDS011;17384;51.214;9.202;2023-10-19T01:01:28;24.85;;;12.57;;
30617;SDS011;17384;51.214;9.202;2023-10-19T01:03:56;19.85;;;12.25;;
30617;SDS011;17384;51.214;9.202;2023-10-19T01:06:23;22.38;;;12.48;;
30617;SDS011;17384;51.214;9.202;2023-10-19T01:08:49;22.63;;;13.40;;
30617;SDS011;17384;51.214;9.202;2023-10-19T01:11:16;24.30;;;13.13;;
30617;SDS011;17384;51.214;9.202;2023-10-19T01:13:45;20.42;;;13.45;;
30617;SDS011;17384;51.214;9.202;2023-10-19T01:16:15;22.33;;;13.75;;
30617;SDS011;17384;51.214;9.202;2023-10-19T01:18:48;25.73;;;13.95;;
30617;SDS011;17384;51.214;9.202;2023-10-19T01:21:22;25.53;;;14.77;;
30617;SDS011;17384;51.214;9.202;2023-10-19T01:23:52;30.23;;;15.32;;
30617;SDS011;17384;51.214;9.202;2023-10-19T01:26:18;24.88;;;15.68;;
30617;SDS011;17384;51.214;9.202;2023-10-19T01:28:47;27.02;;;15.43;;
30617;SDS011;17384;51.214;9.202;2023-10-19T01:31:16;24.38;;;14.90;;
30617;SDS011;17384;51.214;9.202;2023-10-19T01:33:58;25.50;;;14.52;;
30617;SDS011;17384;51.214;9.202;2023-10-19T01:36:26;23.40;;;13.90;;
30617;SDS011;17384;51.214;9.202;2023-10-19T01:38:55;30.55;;;15.07;;
30617;SDS011;17384;51.214;9.202;2023-10-19T01:41:25;24.40;;;14.70;;
30617;SDS011;17384;51.214;9.202;2023-10-19T01:43:52;29.13;;;15.00;;
30617;SDS011;17384;51.214;9.202;2023-10-19T01:46:19;22.52;;;13.95;;
30617;SDS011;17384;51.214;9.202;2023-10-19T01:48:49;22.75;;;13.90;;
30617;SDS011;17384;51.214;9.202;2023-10-19T01:51:20;21.38;;;15.13;;
30617;SDS011;17384;51.214;9.202;2023-10-19T01:53:46;28.33;;;16.02;;
30617;SDS011;17384;51.214;9.202;2023-10-19T01:56:12;24.45;;;14.95;;
30617;SDS011;17384;51.214;9.202;2023-10-19T01:58:40;25.05;;;15.52;;
30617;SDS011;17384;51.214;9.202;2023-10-19T02:01:07;25.08;;;15.45;;
30617;SDS011;17384;51.214;9.202;2023-10-19T02:03:44;22.42;;;15.48;;
30617;SDS011;17384;51.214;9.202;2023-10-19T02:06:10;25.83;;;15.10;;
30617;SDS011;17384;51.214;9.202;2023-10-19T02:08:46;24.70;;;14.98;;
30617;SDS011;17384;51.214;9.202;2023-10-19T02:18:01;25.05;;;15.90;;
30617;SDS011;17384;51.214;9.202;2023-10-19T02:20:28;26.02;;;15.82;;
30617;SDS011;17384;51.214;9.202;2023-10-19T02:22:54;25.02;;;17.02;;
30617;SDS011;17384;51.214;9.202;2023-10-19T02:25:22;28.45;;;17.58;;
30617;SDS011;17384;51.214;9.202;2023-10-19T02:27:53;31.13;;;18.88;;
30617;SDS011;17384;51.214;9.202;2023-10-19T02:30:19;35.30;;;19.40;;
30617;SDS011;17384;51.214;9.202;2023-10-19T02:32:44;31.95;;;18.15;;
30617;SDS011;17384;51.214;9.202;2023-10-19T02:35:12;32.60;;;17.90;;
30617;SDS011;17384;51.214;9.202;2023-10-19T02:37:39;36.15;;;19.98;;
30617;SDS011;17384;51.214;9.202;2023-10-19T02:40:05;31.35;;;18.88;;
30617;SDS011;17384;51.214;9.202;2023-10-19T02:42:51;33.83;;;18.95;;
30617;SDS011;17384;51.214;9.202;2023-10-19T02:45:18;30.80;;;18.95;;
30617;SDS011;17384;51.214;9.202;2023-10-19T02:47:45;39.13;;;19.80;;
30617;SDS011;17384;51.214;9.202;2023-10-19T02:50:11;37.05;;;19.80;;
30617;SDS011;17384;51.214;9.202;2023-10-19T02:52:47;32.25;;;19.58;;
30617;SDS011;17384;51.214;9.202;2023-10-19T02:55:14;36.45;;;21.50;;
30617;SDS011;17384;51.214;9.202;2023-10-19T02:57:42;32.92;;;20.33;;
30617;SDS011;17384;51.214;9.202;2023-10-19T03:00:12;37.42;;;21.40;;
30617;SDS011;17384;51.214;9.202;2023-10-19T03:02:44;39.65;;;22.80;;
30617;SDS011;17384;51.214;9.202;2023-10-19T03:05:10;40.03;;;22.08;;
30617;SDS011;17384;51.214;9.202;2023-10-19T03:07:42;36.95;;;22.13;;
30617;SDS011;17384;51.214;9.202;2023-10-19T03:10:09;46.45;;;24.42;;
30617;SDS011;17384;51.214;9.202;2023-10-19T03:13:02;43.15;;;24.05;;
30617;SDS011;17384;51.214;9.202;2023-10-19T03:15:29;40.85;;;22.55;;
30617;SDS011;17384;51.214;9.202;2023-10-19T03:17:58;45.30;;;23.23;;
30617;SDS011;17384;51.214;9.202;2023-10-19T03:20:27;41.78;;;23.25;;
30617;SDS011;17384;51.214;9.202;2023-10-19T03:22:58;48.78;;;24.25;;
30617;SDS011;17384;51.214;9.202;2023-10-19T03:25:27;44.10;;;22.80;;
30617;SDS011;17384;51.214;9.202;2023-10-19T03:28:11;49.47;;;24.38;;
30617;SDS011;17384;51.214;9.202;2023-10-19T03:30:37;49.03;;;24.10;;
30617;SDS011;17384;51.214;9.202;2023-10-19T03:33:06;48.15;;;25.35;;
30617;SDS011;17384;51.214;9.202;2023-10-19T03:35:36;43.55;;;24.80;;
30617;SDS011;17384;51.214;9.202;2023-10-19T03:38:08;49.20;;;26.15;;
30617;SDS011;17384;51.214;9.202;2023-10-19T03:40:41;50.03;;;26.02;;
30617;SDS011;17384;51.214;9.202;2023-10-19T03:43:11;53.25;;;25.48;;
30617;SDS011;17384;51.214;9.202;2023-10-19T03:45:43;52.00;;;25.70;;
30617;SDS011;17384;51.214;9.202;2023-10-19T03:48:18;53.08;;;25.58;;
30617;SDS011;17384;51.214;9.202;2023-10-19T03:50:50;48.88;;;24.52;;
30617;SDS011;17384;51.214;9.202;2023-10-19T03:53:17;49.47;;;24.88;;
30617;SDS011;17384;51.214;9.202;2023-10-19T03:55:43;46.40;;;24.08;;
30617;SDS011;17384;51.214;9.202;2023-10-19T03:58:09;46.38;;;23.83;;
30617;SDS011;17384;51.214;9.202;2023-10-19T04:00:37;46.00;;;24.20;;
30617;SDS011;17384;51.214;9.202;2023-10-19T04:03:02;50.55;;;23.85;;
30617;SDS011;17384;51.214;9.202;2023-10-19T04:05:28;44.03;;;23.83;;
30617;SDS011;17384;51.214;9.202;2023-10-19T04:07:53;48.38;;;24.20;;
30617;SDS011;17384;51.214;9.202;2023-10-19T04:10:26;46.70;;;23.83;;
30617;SDS011;17384;51.214;9.202;2023-10-19T04:12:55;44.15;;;23.85;;
30617;SDS011;17384;51.214;9.202;2023-10-19T04:15:24;47.20;;;23.35;;
30617;SDS011;17384;51.214;9.202;2023-10-19T04:17:51;45.92;;;23.17;;
30617;SDS011;17384;51.214;9.202;2023-10-19T04:20:20;53.33;;;23.42;;
30617;SDS011;17384;51.214;9.202;2023-10-19T04:22:54;49.85;;;24.02;;
30617;SDS011;17384;51.214;9.202;2023-10-19T04:25:19;46.83;;;23.15;;
30617;SDS011;17384;51.214;9.202;2023-10-19T04:27:46;39.47;;;22.13;;
30617;SDS011;17384;51.214;9.202;2023-10-19T04:30:12;49.60;;;23.85;;
30617;SDS011;17384;51.214;9.202;2023-10-19T04:32:43;44.65;;;22.13;;
30617;SDS011;17384;51.214;9.202;2023-10-19T04:35:09;42.45;;;20.83;;
30617;SDS011;17384;51.214;9.202;2023-10-19T04:37:35;42.33;;;22.10;;
30617;SDS011;17384;51.214;9.202;2023-10-19T04:40:01;42.17;;;22.02;;
30617;SDS011;17384;51.214;9.202;2023-10-19T04:42:27;42.60;;;21.52;;
30617;SDS011;17384;51.214;9.202;2023-10-19T04:44:56;43.50;;;22.08;;
30617;SDS011;17384;51.214;9.202;2023-10-19T04:47:21;37.20;;;20.15;;
30617;SDS011;17384;51.214;9.202;2023-10-19T04:49:47;44.95;;;19.73;;
30617;SDS011;17384;51.214;9.202;2023-10-19T04:52:12;37.85;;;20.63;;
30617;SDS011;17384;51.214;9.202;2023-10-19T04:54:38;35.20;;;19.77;;
30617;SDS011;17384;51.214;9.202;2023-10-19T04:57:03;36.70;;;19.70;;
30617;SDS011;17384;51.214;9.202;2023-10-19T04:59:29;37.05;;;19.65;;
30617;SDS011;17384;51.214;9.202;2023-10-19T05:01:58;35.97;;;19.63;;
30617;SDS011;17384;51.214;9.202;2023-10-19T05:04:26;37.38;;;19.42;;
30617;SDS011;17384;51.214;9.202;2023-10-19T05:06:53;36.85;;;19.88;;
30617;SDS011;17384;51.214;9.202;2023-10-19T05:09:18;39.78;;;21.13;;
30617;SDS011;17384;51.214;9.202;2023-10-19T05:11:44;42.70;;;20.30;;
30617;SDS011;17384;51.214;9.202;2023-10-19T05:14:11;40.17;;;20.83;;
30617;SDS011;17384;51.214;9.202;2023-10-19T05:16:40;45.30;;;21.98;;
30617;SDS011;17384;51.214;9.202;2023-10-19T05:19:06;40.42;;;20.95;;
30617;SDS011;17384;51.214;9.202;2023-10-19T05:21:31;43.60;;;21.25;;
30617;SDS011;17384;51.214;9.202;2023-10-19T05:23:58;45.28;;;21.60;;
30617;SDS011;17384;51.214;9.202;2023-10-19T05:26:25;37.88;;;20.10;;
30617;SDS011;17384;51.214;9.202;2023-10-19T05:28:51;41.80;;;20.52;;
30617;SDS011;17384;51.214;9.202;2023-10-19T05:31:16;38.92;;;20.55;;
30617;SDS011;17384;51.214;9.202;2023-10-19T05:33:42;42.67;;;20.65;;
30617;SDS011;17384;51.214;9.202;2023-10-19T05:36:07;38.08;;;20.08;;
30617;SDS011;17384;51.214;9.202;2023-10-19T05:38:33;40.08;;;20.65;;
30617;SDS011;17384;51.214;9.202;2023-10-19T05:40:59;41.58;;;19.20;;
30617;SDS011;17384;51.214;9.202;2023-10-19T05:43:25;38.85;;;19.95;;
30617;SDS011;17384;51.214;9.202;2023-10-19T05:45:51;45.72;;;19.63;;
30617;SDS011;17384;51.214;9.202;2023-10-19T05:48:16;46.60;;;21.40;;
30617;SDS011;17384;51.214;9.202;2023-10-19T05:50:42;42.35;;;20.17;;
30617;SDS011;17384;51.214;9.202;2023-10-19T05:53:08;44.70;;;21.08;;
30617;SDS011;17384;51.214;9.202;2023-10-19T05:55:34;38.78;;;20.00;;
30617;SDS011;17384;51.214;9.202;2023-10-19T05:58:01;33.85;;;18.35;;
30617;SDS011;17384;51.214;9.202;2023-10-19T06:00:29;41.72;;;20.35;;
30617;SDS011;17384;51.214;9.202;2023-10-19T06:02:55;43.95;;;20.83;;
30617;SDS011;17384;51.214;9.202;2023-10-19T06:05:21;41.53;;;19.90;;
30617;SDS011;17384;51.214;9.202;2023-10-19T06:07:47;44.13;;;20.42;;
30617;SDS011;17384;51.214;9.202;2023-10-19T06:10:15;37.40;;;19.33;;
30617;SDS011;17384;51.214;9.202;2023-10-19T06:12:45;39.85;;;20.35;;
30617;SDS011;17384;51.214;9.202;2023-10-19T06:15:12;44.58;;;19.40;;
30617;SDS011;17384;51.214;9.202;2023-10-19T06:17:41;43.33;;;20.77;;
30617;SDS011;17384;51.214;9.202;2023-10-19T06:20:09;48.13;;;20.92;;
30617;SDS011;17384;51.214;9.202;2023-10-19T06:22:46;47.63;;;20.33;;
30617;SDS011;17384;51.214;9.202;2023-10-19T06:25:15;43.90;;;19.38;;
30617;SDS011;17384;51.214;9.202;2023-10-19T06:27:43;39.78;;;18.92;;
30617;SDS011;17384;51.214;9.202;2023-10-19T06:30:09;42.88;;;19.30;;
30617;SDS011;17384;51.214;9.202;2023-10-19T06:32:35;45.35;;;21.83;;
30617;SDS011;17384;51.214;9.202;2023-10-19T06:35:02;41.22;;;19.70;;
30617;SDS011;17384;51.214;9.202;2023-10-19T06:37:28;50.17;;;20.02;;
30617;SDS011;17384;51.214;9.202;2023-10-19T06:39:54;47.40;;;21.00;;
30617;SDS011;17384;51.214;9.202;2023-10-19T06:42:19;49.38;;;21.70;;
30617;SDS011;17384;51.214;9.202;2023-10-19T06:44:46;42.15;;;19.50;;
30617;SDS011;17384;51.214;9.202;2023-10-19T06:47:11;52.38;;;21.73;;
30617;SDS011;17384;51.214;9.202;2023-10-19T06:49:38;43.97;;;21.92;;
30617;SDS011;17384;51.214;9.202;2023-10-19T06:52:04;45.53;;;20.83;;
30617;SDS011;17384;51.214;9.202;2023-10-19T06:54:30;42.97;;;20.98;;
30617;SDS011;17384;51.214;9.202;2023-10-19T06:56:59;47.42;;;22.80;;
30617;SDS011;17384;51.214;9.202;2023-10-19T06:59:27;44.25;;;20.33;;
30617;SDS011;17384;51.214;9.202;2023-10-19T07:01:54;56.25;;;21.90;;
30617;SDS011;17384;51.214;9.202;2023-10-19T07:04:20;42.45;;;20.58;;
30617;SDS011;17384;51.214;9.202;2023-10-19T07:06:46;42.97;;;21.27;;
30617;SDS011;17384;51.214;9.202;2023-10-19T07:09:12;39.72;;;20.85;;
30617;SDS011;17384;51.214;9.202;2023-10-19T07:11:38;45.40;;;22.35;;
30617;SDS011;17384;51.214;9.202;2023-10-19T07:14:04;43.47;;;21.08;;
30617;SDS011;17384;51.214;9.202;2023-10-19T07:16:32;48.75;;;21.80;;
30617;SDS011;17384;51.214;9.202;2023-10-19T07:18:58;44.75;;;22.05;;
30617;SDS011;17384;51.214;9.202;2023-10-19T07:21:24;51.72;;;21.58;;
30617;SDS011;17384;51.214;9.202;2023-10-19T07:23:50;47.38;;;21.73;;
30617;SDS011;17384;51.214;9.202;2023-10-19T07:26:18;58.03;;;24.15;;
30617;SDS011;17384;51.214;9.202;2023-10-19T07:28:44;57.88;;;23.80;;
30617;SDS011;17384;51.214;9.202;2023-10-19T07:31:10;61.58;;;24.33;;
30617;SDS011;17384;51.214;9.202;2023-10-19T07:33:40;59.38;;;23.60;;
30617;SDS011;17384;51.214;9.202;2023-10-19T07:36:13;54.15;;;24.10;;
30617;SDS011;17384;51.214;9.202;2023-10-19T07:38:43;62.05;;;24.67;;
30617;SDS011;17384;51.214;9.202;2023-10-19T07:41:14;59.03;;;24.33;;
30617;SDS011;17384;51.214;9.202;2023-10-19T07:43:40;54.85;;;24.08;;
30617;SDS011;17384;51.214;9.202;2023-10-19T07:46:05;48.90;;;22.38;;
30617;SDS011;17384;51.214;9.202;2023-10-19T07:48:33;45.55;;;21.05;;
30617;SDS011;17384;51.214;9.202;2023-10-19T07:50:58;45.13;;;21.73;;
30617;SDS011;17384;51.214;9.202;2023-10-19T07:53:24;44.08;;;20.38;;
30617;SDS011;17384;51.214;9.202;2023-10-19T07:55:50;46.97;;;20.45;;
30617;SDS011;17384;51.214;9.202;2023-10-19T07:58:16;46.60;;;20.40;;
30617;SDS011;17384;51.214;9.202;2023-10-19T08:00:42;40.53;;;17.75;;
30617;SDS011;17384;51.214;9.202;2023-10-19T08:03:09;60.40;;;22.27;;
30617;SDS011;17384;51.214;9.202;2023-10-19T08:05:35;45.25;;;19.27;;
30617;SDS011;17384;51.214;9.202;2023-10-19T08:08:01;46.70;;;19.90;;
30617;SDS011;17384;51.214;9.202;2023-10-19T08:10:29;56.13;;;20.63;;
30617;SDS011;17384;51.214;9.202;2023-10-19T08:12:54;51.75;;;20.65;;
30617;SDS011;17384;51.214;9.202;2023-10-19T08:15:20;51.33;;;21.95;;
30617;SDS011;17384;51.214;9.202;2023-10-19T08:17:47;54.47;;;21.45;;
30617;SDS011;17384;51.214;9.202;2023-10-19T08:20:15;58.35;;;25.15;;
30617;SDS011;17384;51.214;9.202;2023-10-19T08:22:55;58.88;;;26.30;;
30617;SDS011;17384;51.214;9.202;2023-10-19T08:25:26;46.38;;;20.08;;
30617;SDS011;17384;51.214;9.202;2023-10-19T08:27:52;41.08;;;19.05;;
30617;SDS011;17384;51.214;9.202;2023-10-19T08:30:22;42.67;;;18.70;;
30617;SDS011;17384;51.214;9.202;2023-10-19T08:32:50;48.45;;;20.65;;
30617;SDS011;17384;51.214;9.202;2023-10-19T08:35:16;43.17;;;18.33;;
30617;SDS011;17384;51.214;9.202;2023-10-19T08:37:45;41.85;;;18.38;;
30617;SDS011;17384;51.214;9.202;2023-10-19T08:40:12;40.97;;;20.75;;
30617;SDS011;17384;51.214;9.202;2023-10-19T08:42:43;39.42;;;19.95;;
30617;SDS011;17384;51.214;9.202;2023-10-19T08:47:48;49.45;;;21.40;;
30617;SDS011;17384;51.214;9.202;2023-10-19T08:50:26;46.05;;;19.83;;
30617;SDS011;17384;51.214;9.202;2023-10-19T08:52:54;44.53;;;19.52;;
30617;SDS011;17384;51.214;9.202;2023-10-19T08:55:21;41.92;;;18.05;;
30617;SDS011;17384;51.214;9.202;2023-10-19T08:57:50;47.30;;;19.30;;
30617;SDS011;17384;51.214;9.202;2023-10-19T09:00:17;51.80;;;19.88;;
30617;SDS011;17384;51.214;9.202;2023-10-19T09:02:47;42.28;;;20.38;;
30617;SDS011;17384;51.214;9.202;2023-10-19T09:05:13;45.38;;;20.25;;
30617;SDS011;17384;51.214;9.202;2023-10-19T09:07:53;43.13;;;20.17;;
30617;SDS011;17384;51.214;9.202;2023-10-19T09:10:22;49.45;;;21.65;;
30617;SDS011;17384;51.214;9.202;2023-10-19T09:13:04;53.38;;;22.13;;
30617;SDS011;17384;51.214;9.202;2023-10-19T09:15:34;45.92;;;20.92;;
30617;SDS011;17384;51.214;9.202;2023-10-19T09:20:50;47.20;;;21.13;;
30617;SDS011;17384;51.214;9.202;2023-10-19T09:23:24;53.03;;;22.13;;
30617;SDS011;17384;51.214;9.202;2023-10-19T09:25:56;54.92;;;22.60;;
30617;SDS011;17384;51.214;9.202;2023-10-19T09:28:24;46.78;;;22.45;;
30617;SDS011;17384;51.214;9.202;2023-10-19T09:30:50;53.03;;;21.58;;
30617;SDS011;17384;51.214;9.202;2023-10-19T09:33:16;57.90;;;21.25;;
30617;SDS011;17384;51.214;9.202;2023-10-19T09:35:52;51.88;;;22.38;;
30617;SDS011;17384;51.214;9.202;2023-10-19T09:38:19;53.67;;;23.67;;
30617;SDS011;17384;51.214;9.202;2023-10-19T09:40:50;62.53;;;22.98;;
30617;SDS011;17384;51.214;9.202;2023-10-19T09:43:21;56.83;;;21.60;;
30617;SDS011;17384;51.214;9.202;2023-10-19T09:45:53;48.83;;;22.20;;
30617;SDS011;17384;51.214;9.202;2023-10-19T09:48:23;49.05;;;21.65;;
30617;SDS011;17384;51.214;9.202;2023-10-19T09:50:53;47.35;;;21.35;;
30617;SDS011;17384;51.214;9.202;2023-10-19T09:53:22;50.75;;;20.95;;
30617;SDS011;17384;51.214;9.202;2023-10-19T09:55:51;48.80;;;20.90;;
30617;SDS011;17384;51.214;9.202;2023-10-19T09:58:20;40.95;;;20.23;;
30617;SDS011;17384;51.214;9.202;2023-10-19T10:00:49;43.10;;;20.85;;
30617;SDS011;17384;51.214;9.202;2023-10-19T10:06:13;37.50;;;19.92;;
30617;SDS011;17384;51.214;9.202;2023-10-19T10:08:53;46.00;;;20.25;;
30617;SDS011;17384;51.214;9.202;2023-10-19T10:11:21;40.92;;;19.58;;
30617;SDS011;17384;51.214;9.202;2023-10-19T10:13:49;45.30;;;21.13;;
30617;SDS011;17384;51.214;9.202;2023-10-19T10:16:19;49.67;;;21.83;;
30617;SDS011;17384;51.214;9.202;2023-10-19T10:18:47;45.17;;;20.50;;
30617;SDS011;17384;51.214;9.202;2023-10-19T10:23:43;57.25;;;24.13;;
30617;SDS011;17384;51.214;9.202;2023-10-19T10:26:12;46.13;;;21.33;;
30617;SDS011;17384;51.214;9.202;2023-10-19T10:28:39;51.90;;;22.48;;
30617;SDS011;17384;51.214;9.202;2023-10-19T10:31:19;53.65;;;23.05;;
30617;SDS011;17384;51.214;9.202;2023-10-19T10:33:49;53.22;;;24.45;;
30617;SDS011;17384;51.214;9.202;2023-10-19T10:36:19;53.30;;;24.10;;
30617;SDS011;17384;51.214;9.202;2023-10-19T10:38:49;51.25;;;22.63;;
30617;SDS011;17384;51.214;9.202;2023-10-19T10:41:19;47.47;;;23.73;;
30617;SDS011;17384;51.214;9.202;2023-10-19T10:43:55;43.33;;;20.20;;
30617;SDS011;17384;51.214;9.202;2023-10-19T10:46:26;43.67;;;21.75;;
30617;SDS011;17384;51.214;9.202;2023-10-19T10:48:55;46.17;;;22.02;;
30617;SDS011;17384;51.214;9.202;2023-10-19T10:51:25;42.53;;;20.63;;
30617;SDS011;17384;51.214;9.202;2023-10-19T10:53:54;43.72;;;23.02;;
30617;SDS011;17384;51.214;9.202;2023-10-19T10:56:23;56.65;;;24.10;;
30617;SDS011;17384;51.214;9.202;2023-10-19T10:58:49;38.88;;;19.73;;
30617;SDS011;17384;51.214;9.202;2023-10-19T11:01:15;37.22;;;19.38;;
30617;SDS011;17384;51.214;9.202;2023-10-19T11:04:04;40.53;;;20.27;;
30617;SDS011;17384;51.214;9.202;2023-10-19T11:06:30;38.33;;;19.38;;
30617;SDS011;17384;51.214;9.202;2023-10-19T11:08:56;89.95;;;35.13;;
30617;SDS011;17384;51.214;9.202;2023-10-19T11:11:22;45.65;;;23.17;;
30617;SDS011;17384;51.214;9.202;2023-10-19T11:13:48;32.38;;;18.02;;
30617;SDS011;17384;51.214;9.202;2023-10-19T11:16:21;33.40;;;17.40;;
30617;SDS011;17384;51.214;9.202;2023-10-19T11:18:48;36.67;;;22.40;;
30617;SDS011;17384;51.214;9.202;2023-10-19T11:21:15;31.42;;;17.52;;
30617;SDS011;17384;51.214;9.202;2023-10-19T11:26:13;33.53;;;18.13;;
30617;SDS011;17384;51.214;9.202;2023-10-19T11:28:42;38.63;;;23.75;;
30617;SDS011;17384;51.214;9.202;2023-10-19T11:31:20;30.52;;;17.77;;
30617;SDS011;17384;51.214;9.202;2023-10-19T11:33:50;31.98;;;16.85;;
30617;SDS011;17384;51.214;9.202;2023-10-19T11:36:18;32.33;;;18.75;;
30617;SDS011;17384;51.214;9.202;2023-10-19T11:38:46;32.67;;;17.75;;
30617;SDS011;17384;51.214;9.202;2023-10-19T11:41:13;32.10;;;18.73;;
30617;SDS011;17384;51.214;9.202;2023-10-19T11:43:39;31.45;;;17.50;;
30617;SDS011;17384;51.214;9.202;2023-10-19T11:46:06;31.83;;;16.85;;
30617;SDS011;17384;51.214;9.202;2023-10-19T11:48:36;26.88;;;16.83;;
30617;SDS011;17384;51.214;9.202;2023-10-19T11:51:03;30.48;;;16.98;;
30617;SDS011;17384;51.214;9.202;2023-10-19T11:53:32;29.38;;;16.90;;
30617;SDS011;17384;51.214;9.202;2023-10-19T11:56:05;27.67;;;17.00;;
30617;SDS011;17384;51.214;9.202;2023-10-19T11:58:32;25.30;;;14.93;;
30617;SDS011;17384;51.214;9.202;2023-10-19T12:01:00;30.52;;;17.05;;
30617;SDS011;17384;51.214;9.202;2023-10-19T12:03:26;28.60;;;16.27;;
30617;SDS011;17384;51.214;9.202;2023-10-19T12:05:52;29.55;;;15.82;;
30617;SDS011;17384;51.214;9.202;2023-10-19T12:08:21;33.55;;;17.30;;
30617;SDS011;17384;51.214;9.202;2023-10-19T12:10:47;25.23;;;16.77;;
30617;SDS011;17384;51.214;9.202;2023-10-19T12:13:13;28.90;;;15.88;;
30617;SDS011;17384;51.214;9.202;2023-10-19T12:15:38;30.08;;;16.05;;
30617;SDS011;17384;51.214;9.202;2023-10-19T12:18:03;27.65;;;14.43;;
30617;SDS011;17384;51.214;9.202;2023-10-19T12:20:30;21.73;;;13.43;;
30617;SDS011;17384;51.214;9.202;2023-10-19T12:22:56;23.75;;;13.63;;
30617;SDS011;17384;51.214;9.202;2023-10-19T12:25:23;25.45;;;13.98;;
30617;SDS011;17384;51.214;9.202;2023-10-19T12:27:57;24.60;;;11.57;;
30617;SDS011;17384;51.214;9.202;2023-10-19T12:30:25;19.98;;;11.95;;
30617;SDS011;17384;51.214;9.202;2023-10-19T12:32:59;23.90;;;11.10;;
30617;SDS011;17384;51.214;9.202;2023-10-19T12:35:26;16.40;;;10.00;;
30617;SDS011;17384;51.214;9.202;2023-10-19T12:38:13;20.42;;;11.60;;
30617;SDS011;17384;51.214;9.202;2023-10-19T12:40:43;22.30;;;11.60;;
30617;SDS011;17384;51.214;9.202;2023-10-19T12:43:09;24.80;;;11.75;;
30617;SDS011;17384;51.214;9.202;2023-10-19T12:45:35;21.60;;;11.88;;
30617;SDS011;17384;51.214;9.202;2023-10-19T12:48:04;20.77;;;10.20;;
30617;SDS011;17384;51.214;9.202;2023-10-19T12:50:31;20.20;;;11.52;;
30617;SDS011;17384;51.214;9.202;2023-10-19T12:52:56;21.65;;;12.75;;
30617;SDS011;17384;51.214;9.202;2023-10-19T12:55:22;20.08;;;11.98;;
30617;SDS011;17384;51.214;9.202;2023-10-19T12:57:52;40.08;;;20.38;;
30617;SDS011;17384;51.214;9.202;2023-10-19T13:00:18;18.40;;;9.48;;
30617;SDS011;17384;51.214;9.202;2023-10-19T13:02:56;19.42;;;8.23;;
30617;SDS011;17384;51.214;9.202;2023-10-19T13:05:33;16.63;;;9.35;;
30617;SDS011;17384;51.214;9.202;2023-10-19T13:08:02;15.37;;;8.43;;
30617;SDS011;17384;51.214;9.202;2023-10-19T13:10:33;14.48;;;7.13;;
30617;SDS011;17384;51.214;9.202;2023-10-19T13:13:02;12.02;;;6.75;;
30617;SDS011;17384;51.214;9.202;2023-10-19T13:15:30;12.57;;;7.50;;
30617;SDS011;17384;51.214;9.202;2023-10-19T13:17:57;14.00;;;7.70;;
30617;SDS011;17384;51.214;9.202;2023-10-19T13:20:26;20.60;;;9.77;;
30617;SDS011;17384;51.214;9.202;2023-10-19T13:22:53;19.17;;;10.45;;
30617;SDS011;17384;51.214;9.202;2023-10-19T13:25:20;22.33;;;10.65;;
30617;SDS011;17384;51.214;9.202;2023-10-19T13:28:04;17.83;;;9.10;;
30617;SDS011;17384;51.214;9.202;2023-10-19T13:30:37;17.05;;;7.60;;
30617;SDS011;17384;51.214;9.202;2023-10-19T13:35:35;15.13;;;6.75;;
30617;SDS011;17384;51.214;9.202;2023-10-19T13:38:02;17.70;;;7.65;;
30617;SDS011;17384;51.214;9.202;2023-10-19T13:40:29;12.55;;;5.53;;
30617;SDS011;17384;51.214;9.202;2023-10-19T13:42:56;12.50;;;5.47;;
30617;SDS011;17384;51.214;9.202;2023-10-19T13:45:23;8.52;;;5.90;;
30617;SDS011;17384;51.214;9.202;2023-10-19T13:47:49;12.27;;;5.38;;
30617;SDS011;17384;51.214;9.202;2023-10-19T13:50:14;14.27;;;5.95;;
30617;SDS011;17384;51.214;9.202;2023-10-19T13:52:40;14.30;;;5.80;;
30617;SDS011;17384;51.214;9.202;2023-10-19T13:55:06;14.32;;;6.00;;
30617;SDS011;17384;51.214;9.202;2023-10-19T13:57:33;11.85;;;5.78;;
30617;SDS011;17384;51.214;9.202;2023-10-19T13:59:59;11.20;;;5.07;;
30617;SDS011;17384;51.214;9.202;2023-10-19T14:02:26;9.70;;;4.95;;
30617;SDS011;17384;51.214;9.202;2023-10-19T14:04:52;16.17;;;5.22;;
30617;SDS011;17384;51.214;9.202;2023-10-19T14:07:20;12.50;;;4.90;;
30617;SDS011;17384;51.214;9.202;2023-10-19T14:09:46;16.23;;;5.45;;
30617;SDS011;17384;51.214;9.202;2023-10-19T14:12:12;13.75;;;5.50;;
30617;SDS011;17384;51.214;9.202;2023-10-19T14:14:38;15.00;;;6.28;;
30617;SDS011;17384;51.214;9.202;2023-10-19T14:17:03;9.98;;;6.38;;
30617;SDS011;17384;51.214;9.202;2023-10-19T14:19:30;23.52;;;7.75;;
30617;SDS011;17384;51.214;9.202;2023-10-19T14:21:56;18.85;;;8.02;;
30617;SDS011;17384;51.214;9.202;2023-10-19T14:24:22;13.63;;;7.57;;
30617;SDS011;17384;51.214;9.202;2023-10-19T14:26:47;16.08;;;7.00;;
30617;SDS011;17384;51.214;9.202;2023-10-19T14:29:13;20.05;;;8.70;;
30617;SDS011;17384;51.214;9.202;2023-10-19T14:31:39;16.23;;;8.70;;
30617;SDS011;17384;51.214;9.202;2023-10-19T14:34:06;16.00;;;8.85;;
30617;SDS011;17384;51.214;9.202;2023-10-19T14:36:33;21.10;;;8.85;;
30617;SDS011;17384;51.214;9.202;2023-10-19T14:38:59;13.98;;;8.82;;
30617;SDS011;17384;51.214;9.202;2023-10-19T14:41:24;16.05;;;9.55;;
30617;SDS011;17384;51.214;9.202;2023-10-19T14:43:50;15.63;;;9.32;;
30617;SDS011;17384;51.214;9.202;2023-10-19T14:46:16;21.67;;;11.52;;
30617;SDS011;17384;51.214;9.202;2023-10-19T14:48:43;14.90;;;9.70;;
30617;SDS011;17384;51.214;9.202;2023-10-19T14:51:10;21.48;;;10.48;;
30617;SDS011;17384;51.214;9.202;2023-10-19T14:53:36;26.40;;;11.27;;
30617;SDS011;17384;51.214;9.202;2023-10-19T14:56:02;21.98;;;10.50;;